Time;durP1;ratioP1;P1;durP2;ratioP2;P2;SDS_P1;SDS_P2;PMS_P1;PMS_P2;Temp;Humidity;BMP_temperature;BMP_pressure;BME280_temperature;BME280_humidity;BME280_pressure;Samples;Min_cycle;Max_cycle;Signal;HPM_P1;HPM_P2
2023/10/24 21:30:46;;;;;;;9.70;5.97;;;10.60;99.90;;;;;;5076501;27;20406;-69
2023/10/24 21:33:12;;;;;;;11.32;5.88;;;10.60;99.90;;;;;;5066687;28;20529;-69
2023/10/24 21:35:47;;;;;;;12.02;6.00;;;10.50;99.90;;;;;;5067287;28;20148;-69
2023/10/24 21:38:12;;;;;;;14.60;6.25;;;10.50;99.90;;;;;;5046753;28;20044;-70
2023/10/24 21:40:39;;;;;;;11.60;5.68;;;10.50;99.90;;;;;;5059123;28;20110;-68
2023/10/24 21:43:04;;;;;;;8.85;5.72;;;10.40;99.90;;;;;;5062284;28;20438;-69
2023/10/24 21:45:30;;;;;;;10.82;6.25;;;10.40;99.90;;;;;;5062324;28;20029;-70
2023/10/24 21:47:56;;;;;;;11.80;5.63;;;10.40;99.90;;;;;;5059062;28;20095;-70
2023/10/24 21:50:21;;;;;;;13.32;6.13;;;10.40;99.90;;;;;;5069118;28;20040;-70
2023/10/24 21:52:47;;;;;;;11.95;6.53;;;10.40;99.90;;;;;;5050151;28;20068;-71
2023/10/24 21:55:13;;;;;;;11.02;5.60;;;10.40;99.90;;;;;;5054897;28;20040;-70
2023/10/24 21:57:38;;;;;;;11.10;5.75;;;10.30;99.90;;;;;;5059491;28;20037;-71
2023/10/24 22:00:08;;;;;;;12.20;5.65;;;10.30;99.90;;;;;;5060697;28;20093;-71
2023/10/24 22:02:33;;;;;;;12.10;6.43;;;10.30;99.90;;;;;;5064027;28;20041;-71
2023/10/24 22:04:59;;;;;;;13.48;6.78;;;10.30;99.90;;;;;;5068401;28;20506;-71
2023/10/24 22:07:24;;;;;;;10.57;6.07;;;10.20;99.90;;;;;;5058582;28;20148;-71
2023/10/24 22:09:50;;;;;;;11.68;5.65;;;10.20;99.90;;;;;;5066351;28;20033;-71
2023/10/24 22:12:16;;;;;;;10.70;5.93;;;10.20;99.90;;;;;;5057148;28;20033;-71
2023/10/24 22:14:42;;;;;;;11.80;5.95;;;10.20;99.90;;;;;;5059901;28;20044;-71
2023/10/24 22:17:09;;;;;;;11.00;5.75;;;10.20;99.90;;;;;;5061737;28;20086;-71
2023/10/24 22:19:34;;;;;;;10.88;5.97;;;10.10;99.90;;;;;;5061977;28;20503;-71
2023/10/24 22:22:00;;;;;;;11.90;5.35;;;10.20;99.90;;;;;;5058435;28;20116;-71
2023/10/24 22:24:26;;;;;;;11.90;6.22;;;10.20;99.90;;;;;;5062517;28;20126;-71
2023/10/24 22:26:52;;;;;;;14.30;6.00;;;10.10;99.90;;;;;;5066365;28;20090;-71
2023/10/24 22:29:17;;;;;;;15.77;6.50;;;10.10;99.90;;;;;;5057744;28;20086;-71
2023/10/24 22:31:43;;;;;;;11.60;5.50;;;10.10;99.90;;;;;;5060406;28;20044;-71
2023/10/24 22:34:08;;;;;;;13.57;5.78;;;10.10;99.90;;;;;;5065463;28;20041;-71
2023/10/24 22:36:34;;;;;;;11.75;5.75;;;10.10;99.90;;;;;;5060384;28;20029;-71
2023/10/24 22:38:59;;;;;;;11.50;5.68;;;10.10;99.90;;;;;;5064043;28;20522;-71
2023/10/24 22:41:25;;;;;;;14.50;6.20;;;10.00;99.90;;;;;;5058229;28;20056;-70
2023/10/24 22:43:50;;;;;;;12.88;6.10;;;10.00;99.90;;;;;;5042331;28;20033;-71
2023/10/24 22:46:16;;;;;;;14.10;6.22;;;10.00;99.90;;;;;;5051195;28;20040;-71
2023/10/24 22:48:41;;;;;;;12.70;5.80;;;10.00;99.90;;;;;;5048048;28;20503;-70
2023/10/24 22:51:07;;;;;;;10.95;6.05;;;10.00;99.90;;;;;;5051876;28;20205;-71
2023/10/24 22:53:33;;;;;;;13.05;5.90;;;9.90;99.90;;;;;;5051201;28;20040;-70
2023/10/24 22:55:58;;;;;;;10.63;5.72;;;9.90;99.90;;;;;;5052476;28;20064;-71
2023/10/24 22:58:24;;;;;;;13.95;6.45;;;9.90;99.90;;;;;;5051826;28;20029;-71
2023/10/24 23:00:49;;;;;;;14.45;6.10;;;9.90;99.90;;;;;;5051107;28;20111;-71
2023/10/24 23:03:15;;;;;;;10.82;5.75;;;9.90;99.90;;;;;;5052117;28;20029;-70
2023/10/24 23:05:41;;;;;;;12.98;5.50;;;9.90;99.90;;;;;;5050269;28;20035;-70
2023/10/24 23:08:06;;;;;;;12.57;5.63;;;9.90;99.90;;;;;;5050802;28;20077;-70
2023/10/24 23:10:32;;;;;;;10.98;5.75;;;9.90;99.90;;;;;;5047888;28;20032;-71
2023/10/24 23:12:57;;;;;;;14.60;5.82;;;9.90;99.90;;;;;;5052102;28;20095;-70
2023/10/24 23:15:23;;;;;;;13.55;5.82;;;9.90;99.90;;;;;;5051762;28;20040;-71
2023/10/24 23:17:48;;;;;;;12.00;5.25;;;9.90;99.90;;;;;;5061682;28;20094;-70
2023/10/24 23:20:14;;;;;;;12.93;5.30;;;9.90;99.90;;;;;;5049976;28;20047;-70
2023/10/24 23:22:39;;;;;;;12.30;5.70;;;9.80;99.90;;;;;;5047910;28;20041;-71
2023/10/24 23:25:05;;;;;;;11.25;5.35;;;9.80;99.90;;;;;;5032504;28;20051;-71
2023/10/24 23:27:31;;;;;;;11.90;5.07;;;9.80;99.90;;;;;;5050094;28;20479;-71
2023/10/24 23:29:56;;;;;;;11.35;5.78;;;9.80;99.90;;;;;;5049706;28;20102;-70
2023/10/24 23:32:22;;;;;;;12.55;5.28;;;9.80;99.90;;;;;;5044139;28;20037;-70
2023/10/24 23:34:47;;;;;;;10.82;5.45;;;9.80;99.90;;;;;;5050779;28;20041;-70
2023/10/24 23:37:13;;;;;;;11.65;5.00;;;9.80;99.90;;;;;;5051478;28;20029;-71
2023/10/24 23:39:38;;;;;;;10.77;4.85;;;9.70;99.90;;;;;;5056837;28;20040;-71
2023/10/24 23:42:04;;;;;;;14.00;5.22;;;9.70;99.90;;;;;;5048756;28;20043;-71
2023/10/24 23:44:30;;;;;;;12.70;5.65;;;9.70;99.90;;;;;;5051905;28;20036;-71
2023/10/24 23:46:56;;;;;;;17.65;5.40;;;9.70;99.90;;;;;;5047613;28;20042;-71
2023/10/24 23:49:22;;;;;;;15.55;5.15;;;9.70;99.90;;;;;;5043584;28;20436;-71
2023/10/24 23:51:47;;;;;;;11.20;4.97;;;9.70;99.90;;;;;;5048435;28;20455;-71
2023/10/24 23:54:13;;;;;;;11.82;4.78;;;9.70;99.90;;;;;;5047660;28;20037;-71
2023/10/24 23:56:39;;;;;;;9.93;5.03;;;9.70;99.90;;;;;;5039024;28;20098;-71
2023/10/24 23:59:05;;;;;;;13.23;5.05;;;9.60;99.90;;;;;;5059793;28;20041;-71
